createdAt,value
2023-03-16T00:00:13.786Z,3.30
2023-03-16T00:02:42.390Z,3.30
2023-03-16T00:05:12.728Z,3.30
2023-03-16T00:07:42.014Z,3.30
2023-03-16T00:10:14.250Z,3.30
2023-03-16T00:12:43.590Z,3.30
2023-03-16T00:15:12.333Z,3.20
2023-03-16T00:17:40.626Z,3.30
2023-03-16T00:20:11.777Z,3.30
2023-03-16T00:22:39.897Z,3.30
2023-03-16T00:25:09.595Z,3.30
2023-03-16T00:27:39.476Z,3.30
2023-03-16T00:30:11.835Z,3.30
2023-03-16T00:32:40.236Z,3.30
2023-03-16T00:35:09.758Z,3.30
2023-03-16T00:37:39.389Z,3.30
2023-03-16T00:40:11.436Z,3.20
2023-03-16T00:42:41.342Z,3.20
2023-03-16T00:45:11.890Z,3.20
2023-03-16T00:47:40.220Z,3.20
2023-03-16T00:50:09.374Z,3.20
2023-03-16T00:52:37.553Z,3.10
2023-03-16T00:55:06.826Z,3.10
2023-03-16T00:57:35.289Z,3.10
2023-03-16T01:00:12.668Z,3.00
2023-03-16T01:02:40.755Z,3.00
2023-03-16T01:05:10.470Z,2.90
2023-03-16T01:07:38.556Z,2.90
2023-03-16T01:10:08.558Z,2.90
2023-03-16T01:12:36.874Z,2.90
2023-03-16T01:15:09.551Z,2.80
2023-03-16T01:17:37.697Z,2.80
2023-03-16T01:20:11.861Z,2.80
2023-03-16T01:22:40.127Z,2.70
2023-03-16T01:25:12.385Z,2.70
2023-03-16T01:27:43.294Z,2.70
2023-03-16T01:30:14.175Z,2.70
2023-03-16T01:32:43.273Z,2.70
2023-03-16T01:35:14.504Z,2.70
2023-03-16T01:37:42.838Z,2.70
2023-03-16T01:40:17.081Z,2.70
2023-03-16T01:42:50.952Z,2.70
2023-03-16T01:46:18.137Z,2.70
2023-03-16T01:49:01.508Z,2.70
2023-03-16T01:51:38.755Z,2.70
2023-03-16T01:54:15.466Z,2.70
2023-03-16T01:56:51.761Z,2.70
2023-03-16T01:59:26.166Z,2.70
2023-03-16T02:01:57.035Z,2.60
2023-03-16T02:04:43.252Z,2.60
2023-03-16T02:07:16.846Z,2.60
2023-03-16T02:09:49.278Z,2.60
2023-03-16T02:12:19.432Z,2.50
2023-03-16T02:14:55.241Z,2.50
2023-03-16T02:17:29.409Z,2.50
2023-03-16T02:20:24.069Z,2.50
2023-03-16T02:22:55.107Z,2.50
2023-03-16T02:25:28.494Z,2.50
2023-03-16T02:28:09.288Z,2.50
2023-03-16T02:30:43.399Z,2.50
2023-03-16T02:33:14.282Z,2.50
2023-03-16T02:35:42.593Z,2.50
2023-03-16T02:38:10.868Z,2.50
2023-03-16T02:40:55.627Z,2.50
2023-03-16T02:43:34.051Z,2.50
2023-03-16T02:46:15.284Z,2.50
2023-03-16T02:48:55.114Z,2.50
2023-03-16T02:51:23.256Z,2.50
2023-03-16T02:53:51.394Z,2.50
2023-03-16T02:56:20.196Z,2.50
2023-03-16T02:58:51.018Z,2.50
2023-03-16T03:01:22.470Z,2.50
2023-03-16T03:03:50.604Z,2.50
2023-03-16T03:06:21.756Z,2.50
2023-03-16T03:08:49.862Z,2.50
2023-03-16T03:11:19.595Z,2.50
2023-03-16T03:13:48.268Z,2.50
2023-03-16T03:16:22.225Z,2.50
2023-03-16T03:18:52.637Z,2.60
2023-03-16T03:21:21.727Z,2.60
2023-03-16T03:23:49.834Z,2.60
2023-03-16T03:26:20.018Z,2.60
2023-03-16T03:28:49.530Z,2.60
2023-03-16T03:31:23.654Z,2.60
2023-03-16T03:33:53.569Z,2.60
2023-03-16T03:36:23.265Z,2.60
2023-03-16T03:38:51.433Z,2.60
2023-03-16T03:41:22.312Z,2.60
2023-03-16T03:43:50.910Z,2.60
2023-03-16T03:46:19.981Z,2.60
2023-03-16T03:48:49.524Z,2.60
2023-03-16T03:51:17.679Z,2.60
2023-03-16T03:53:48.230Z,2.60
2023-03-16T03:56:35.195Z,2.60
2023-03-16T03:59:03.813Z,2.60
2023-03-16T04:01:50.447Z,2.60
2023-03-16T04:04:20.204Z,2.70
2023-03-16T04:06:48.875Z,2.70
2023-03-16T04:09:17.105Z,2.70
2023-03-16T04:11:46.657Z,2.70
2023-03-16T04:14:14.760Z,2.70
2023-03-16T04:16:44.205Z,2.70
2023-03-16T04:19:14.364Z,2.70
2023-03-16T04:21:44.499Z,2.80
2023-03-16T04:24:14.692Z,2.80
2023-03-16T04:26:44.976Z,2.80
2023-03-16T04:29:14.139Z,2.80
2023-03-16T04:31:42.918Z,2.80
2023-03-16T04:34:12.545Z,2.80
2023-03-16T04:36:41.745Z,2.80
2023-03-16T04:39:11.751Z,2.80
2023-03-16T04:41:40.039Z,2.90
2023-03-16T04:44:14.677Z,2.90
2023-03-16T04:46:42.886Z,2.90
2023-03-16T04:49:12.446Z,2.90
2023-03-16T04:51:43.981Z,2.90
2023-03-16T04:54:17.243Z,2.90
2023-03-16T04:56:45.789Z,2.90
2023-03-16T04:59:30.492Z,3.00
2023-03-16T05:02:04.986Z,2.90
2023-03-16T05:04:34.452Z,3.00
2023-03-16T05:07:03.453Z,3.00
2023-03-16T05:09:37.809Z,3.00
2023-03-16T05:12:06.408Z,3.00
2023-03-16T05:14:35.967Z,3.00
2023-03-16T05:17:30.181Z,3.00
2023-03-16T05:19:58.541Z,3.00
2023-03-16T05:22:26.866Z,3.10
2023-03-16T05:25:14.787Z,3.10
2023-03-16T05:27:46.428Z,3.10
2023-03-16T05:30:20.656Z,3.10
2023-03-16T05:32:49.523Z,3.10
2023-03-16T05:35:18.225Z,3.10
2023-03-16T05:37:47.234Z,3.10
2023-03-16T05:40:22.980Z,3.10
2023-03-16T05:43:09.154Z,3.10
2023-03-16T05:45:50.869Z,3.10
2023-03-16T05:48:29.491Z,3.20
2023-03-16T05:51:09.457Z,3.20
2023-03-16T05:53:40.211Z,3.20
2023-03-16T05:56:25.014Z,3.20
2023-03-16T05:58:55.432Z,3.20
2023-03-16T06:01:24.909Z,3.20
2023-03-16T06:03:54.494Z,3.20
2023-03-16T06:06:27.159Z,3.30
2023-03-16T06:09:01.631Z,3.20
2023-03-16T06:11:33.021Z,3.30
2023-03-16T06:14:02.283Z,3.30
2023-03-16T06:16:30.789Z,3.30
2023-03-16T06:18:59.914Z,3.30
2023-03-16T06:21:29.924Z,3.30
2023-03-16T06:24:04.404Z,3.40
2023-03-16T06:26:33.879Z,3.40
2023-03-16T06:29:02.160Z,3.40
2023-03-16T06:31:30.870Z,3.40
2023-03-16T06:33:59.048Z,3.40
2023-03-16T06:36:27.729Z,3.40
2023-03-16T06:38:59.096Z,3.50
2023-03-16T06:41:35.616Z,3.50
2023-03-16T06:44:06.086Z,3.50
2023-03-16T06:46:36.914Z,3.50
2023-03-16T06:49:06.095Z,3.50
2023-03-16T06:51:34.511Z,3.60
2023-03-16T06:54:02.670Z,3.60
2023-03-16T06:56:33.227Z,3.60
2023-03-16T06:59:01.605Z,3.70
2023-03-16T07:01:29.845Z,3.70
2023-03-16T07:03:58.008Z,3.70
2023-03-16T07:06:31.138Z,3.70
2023-03-16T07:09:01.284Z,3.80
2023-03-16T07:11:30.897Z,3.80
2023-03-16T07:14:01.481Z,3.90
2023-03-16T07:16:32.029Z,3.90
2023-03-16T07:19:03.114Z,4.00
2023-03-16T07:21:39.061Z,4.00
2023-03-16T07:24:12.746Z,4.00
2023-03-16T07:26:42.404Z,4.10
2023-03-16T07:29:13.812Z,4.10
2023-03-16T07:31:42.765Z,4.20
2023-03-16T07:34:16.523Z,4.20
2023-03-16T07:36:49.536Z,4.20
2023-03-16T07:39:17.979Z,4.30
2023-03-16T07:41:47.209Z,4.30
2023-03-16T07:44:19.288Z,4.40
2023-03-16T07:46:51.436Z,4.40
2023-03-16T07:49:21.259Z,4.50
2023-03-16T07:51:50.429Z,4.50
2023-03-16T07:54:21.544Z,4.60
2023-03-16T07:56:50.059Z,4.60
2023-03-16T07:59:38.445Z,4.70
2023-03-16T08:02:08.970Z,4.70
2023-03-16T08:04:37.177Z,4.80
2023-03-16T08:07:05.489Z,4.80
2023-03-16T08:09:51.407Z,4.80
2023-03-16T08:12:24.713Z,4.90
2023-03-16T08:14:54.948Z,4.90
2023-03-16T08:17:27.714Z,5.00
2023-03-16T08:19:57.226Z,5.00
2023-03-16T08:22:26.348Z,5.10
2023-03-16T08:24:54.972Z,5.20
2023-03-16T08:27:23.727Z,5.30
2023-03-16T08:30:04.496Z,5.40
2023-03-16T08:32:34.119Z,5.50
2023-03-16T08:35:02.488Z,5.60
2023-03-16T08:37:30.803Z,5.60
2023-03-16T08:40:00.391Z,5.70
2023-03-16T08:42:29.961Z,5.80
2023-03-16T08:45:13.610Z,5.90
2023-03-16T08:47:43.681Z,6.00
2023-03-16T08:50:15.464Z,6.10
2023-03-16T08:52:43.631Z,6.20
2023-03-16T08:55:13.245Z,6.30
2023-03-16T08:57:41.665Z,6.30
2023-03-16T09:00:14.606Z,6.40
2023-03-16T09:02:43.961Z,6.50
2023-03-16T09:05:14.605Z,6.50
2023-03-16T09:07:43.576Z,6.60
2023-03-16T09:10:16.013Z,6.70
2023-03-16T09:12:44.669Z,6.70
2023-03-16T09:15:14.950Z,6.70
2023-03-16T09:17:44.988Z,6.80
2023-03-16T09:20:26.841Z,6.80
2023-03-16T09:22:58.688Z,6.80
2023-03-16T09:25:27.327Z,6.80
2023-03-16T09:27:55.660Z,6.90
2023-03-16T09:30:25.323Z,6.90
2023-03-16T09:32:53.580Z,6.90
2023-03-16T09:35:21.797Z,6.90
2023-03-16T09:38:05.324Z,6.90
2023-03-16T09:40:35.954Z,6.90
2023-03-16T09:43:25.742Z,6.90
2023-03-16T09:46:06.496Z,6.90
2023-03-16T09:48:38.153Z,7.00
2023-03-16T09:51:09.773Z,6.90
2023-03-16T09:53:40.538Z,7.00
2023-03-16T09:56:15.368Z,7.00
2023-03-16T09:58:43.830Z,7.00
2023-03-16T10:01:27.677Z,7.00
2023-03-16T10:04:14.367Z,7.00
2023-03-16T10:06:56.434Z,7.00
2023-03-16T10:09:34.899Z,7.00
2023-03-16T10:12:05.391Z,7.00
2023-03-16T10:14:46.633Z,7.00
2023-03-16T10:17:22.581Z,7.00
2023-03-16T10:19:57.934Z,7.10
2023-03-16T10:22:33.610Z,7.10
2023-03-16T10:25:09.085Z,7.10
2023-03-16T10:27:40.551Z,7.20
2023-03-16T10:30:22.727Z,7.20
2023-03-16T10:32:53.308Z,7.20
2023-03-16T10:35:41.469Z,7.30
2023-03-16T10:38:10.327Z,7.30
2023-03-16T10:40:40.428Z,7.30
2023-03-16T10:43:14.178Z,7.40
2023-03-16T10:45:46.347Z,7.40
2023-03-16T10:48:19.640Z,7.40
2023-03-16T10:50:55.165Z,7.40
2023-03-16T10:53:29.959Z,7.50
2023-03-16T10:56:02.945Z,7.50
2023-03-16T10:58:33.906Z,7.50
2023-03-16T11:01:03.470Z,7.60
2023-03-16T11:03:41.380Z,7.60
2023-03-16T11:06:22.840Z,7.70
2023-03-16T11:08:52.948Z,7.70
2023-03-16T11:11:32.533Z,7.70
2023-03-16T11:14:04.462Z,7.80
2023-03-16T11:16:40.274Z,7.80
2023-03-16T11:19:22.410Z,7.80
2023-03-16T11:21:57.890Z,7.90
2023-03-16T11:24:33.120Z,7.90
2023-03-16T11:27:08.434Z,7.90
2023-03-16T11:29:56.574Z,8.00
2023-03-16T11:32:31.892Z,8.00
2023-03-16T11:35:04.353Z,8.00
2023-03-16T11:37:52.553Z,8.00
2023-03-16T11:40:39.980Z,8.00
2023-03-16T11:43:28.125Z,8.00
2023-03-16T11:46:12.419Z,8.00
2023-03-16T11:48:51.370Z,8.00
2023-03-16T11:51:40.429Z,8.00
2023-03-16T11:54:36.926Z,8.00
2023-03-16T11:57:22.196Z,8.00
2023-03-16T12:00:09.584Z,8.10
2023-03-16T12:02:55.924Z,8.10
2023-03-16T12:05:43.854Z,8.10
2023-03-16T12:08:42.197Z,8.10
2023-03-16T12:11:15.923Z,8.20
2023-03-16T12:14:12.318Z,8.20
2023-03-16T12:16:50.131Z,8.30
2023-03-16T12:19:27.606Z,8.40
2023-03-16T12:22:08.666Z,8.40
2023-03-16T12:24:45.463Z,8.50
2023-03-16T12:27:20.130Z,8.60
2023-03-16T12:30:03.792Z,8.70
2023-03-16T12:32:45.158Z,8.70
2023-03-16T12:35:34.153Z,8.80
2023-03-16T12:38:22.574Z,8.90
2023-03-16T12:41:23.015Z,8.90
2023-03-16T12:44:12.441Z,9.10
2023-03-16T12:46:56.130Z,9.10
2023-03-16T12:49:26.414Z,9.20
2023-03-16T12:52:02.146Z,9.20
2023-03-16T12:54:31.146Z,9.20
2023-03-16T12:57:06.650Z,9.30
2023-03-16T12:59:42.779Z,9.30
2023-03-16T13:02:17.691Z,9.40
2023-03-16T13:04:51.793Z,9.40
2023-03-16T13:07:24.642Z,9.40
2023-03-16T13:09:57.154Z,9.40
2023-03-16T13:12:30.916Z,9.50
2023-03-16T13:15:00.061Z,9.40
2023-03-16T13:17:32.310Z,9.40
2023-03-16T13:20:30.799Z,9.50
2023-03-16T13:23:25.387Z,9.50
2023-03-16T13:26:15.286Z,9.50
2023-03-16T13:28:52.448Z,9.40
2023-03-16T13:31:27.526Z,9.40
2023-03-16T13:34:00.013Z,9.50
2023-03-16T13:36:29.871Z,9.50
2023-03-16T13:39:06.627Z,9.50
2023-03-16T13:41:34.767Z,9.50
2023-03-16T13:44:08.321Z,9.50
2023-03-16T13:46:36.417Z,9.60
2023-03-16T13:49:05.729Z,9.60
2023-03-16T13:51:39.130Z,9.70
2023-03-16T13:54:24.517Z,9.80
2023-03-16T13:56:56.431Z,9.90
2023-03-16T13:59:26.821Z,10.00
2023-03-16T14:02:01.629Z,10.10
2023-03-16T14:04:32.633Z,10.10
2023-03-16T14:07:03.771Z,10.20
2023-03-16T14:09:36.344Z,10.20
2023-03-16T14:12:05.170Z,10.30
2023-03-16T14:14:42.045Z,10.30
2023-03-16T14:17:14.969Z,10.30
2023-03-16T14:19:47.863Z,10.40
2023-03-16T14:22:19.408Z,10.40
2023-03-16T14:24:54.787Z,10.40
2023-03-16T14:27:33.728Z,10.40
2023-03-16T14:30:18.102Z,10.40
2023-03-16T14:32:58.741Z,10.40
2023-03-16T14:35:31.743Z,10.40
2023-03-16T14:38:21.543Z,10.40
2023-03-16T14:40:55.932Z,10.50
2023-03-16T14:43:30.820Z,10.50
2023-03-16T14:46:01.951Z,10.60
2023-03-16T14:48:30.422Z,10.60
2023-03-16T14:51:02.639Z,10.70
2023-03-16T14:53:32.973Z,10.70
2023-03-16T14:56:03.868Z,10.70
2023-03-16T14:58:43.467Z,10.70
2023-03-16T15:01:24.775Z,10.70
2023-03-16T15:03:57.733Z,10.70
2023-03-16T15:06:27.793Z,10.70
2023-03-16T15:09:01.689Z,10.70
2023-03-16T15:11:44.137Z,10.80
2023-03-16T15:14:42.589Z,10.80
2023-03-16T15:17:15.181Z,10.80
2023-03-16T15:19:45.535Z,10.80
2023-03-16T15:22:17.710Z,10.90
2023-03-16T15:24:52.336Z,10.90
2023-03-16T15:27:26.770Z,11.00
2023-03-16T15:29:57.502Z,11.00
2023-03-16T15:32:27.096Z,11.10
2023-03-16T15:34:58.256Z,11.10
2023-03-16T15:37:30.153Z,11.10
2023-03-16T15:39:58.229Z,11.20
2023-03-16T15:42:29.706Z,11.20
2023-03-16T15:45:02.933Z,11.20
2023-03-16T15:47:34.751Z,11.30
2023-03-16T15:50:02.875Z,11.30
2023-03-16T15:52:37.473Z,11.30
2023-03-16T15:55:23.416Z,11.40
2023-03-16T15:58:02.294Z,11.30
2023-03-16T16:00:37.411Z,11.30
2023-03-16T16:03:15.504Z,11.30
2023-03-16T16:05:46.778Z,11.30
2023-03-16T16:08:19.159Z,11.30
2023-03-16T16:10:53.413Z,11.30
2023-03-16T16:13:43.555Z,11.30
2023-03-16T16:16:24.134Z,11.20
2023-03-16T16:18:53.623Z,11.20
2023-03-16T16:21:26.631Z,11.20
2023-03-16T16:23:54.811Z,11.20
2023-03-16T16:26:45.471Z,11.20
2023-03-16T16:29:18.594Z,11.10
2023-03-16T16:31:47.020Z,11.10
2023-03-16T16:34:20.983Z,11.10
2023-03-16T16:36:49.695Z,11.10
2023-03-16T16:39:18.318Z,11.10
2023-03-16T16:41:47.305Z,11.10
2023-03-16T16:44:19.768Z,11.10
2023-03-16T16:46:50.739Z,11.10
2023-03-16T16:49:24.007Z,11.20
2023-03-16T16:51:52.562Z,11.20
2023-03-16T16:54:23.290Z,11.20
2023-03-16T16:56:54.049Z,11.20
2023-03-16T16:59:25.696Z,11.10
2023-03-16T17:01:54.855Z,11.10
2023-03-16T17:04:27.437Z,11.10
2023-03-16T17:06:59.572Z,11.10
2023-03-16T17:09:29.962Z,11.00
2023-03-16T17:12:00.867Z,11.00
2023-03-16T17:14:31.016Z,10.90
2023-03-16T17:17:05.025Z,10.90
2023-03-16T17:19:34.692Z,10.90
2023-03-16T17:22:03.166Z,10.80
2023-03-16T17:24:31.893Z,10.70
2023-03-16T17:27:02.004Z,10.70
2023-03-16T17:29:33.396Z,10.60
2023-03-16T17:32:04.971Z,10.60
2023-03-16T17:34:35.921Z,10.50
2023-03-16T17:37:04.148Z,10.50
2023-03-16T17:39:34.778Z,10.40
2023-03-16T17:42:07.166Z,10.40
2023-03-16T17:44:41.868Z,10.30
2023-03-16T17:47:17.211Z,10.30
2023-03-16T17:49:48.757Z,10.30
2023-03-16T17:52:19.452Z,10.20
2023-03-16T17:54:48.480Z,10.20
2023-03-16T17:57:19.699Z,10.20
2023-03-16T17:59:48.489Z,10.10
2023-03-16T18:02:45.568Z,10.10
2023-03-16T18:05:21.573Z,10.00
2023-03-16T18:07:50.167Z,9.90
2023-03-16T18:10:21.099Z,9.90
2023-03-16T18:12:57.225Z,9.80
2023-03-16T18:15:31.345Z,9.80
2023-03-16T18:18:01.346Z,9.70
2023-03-16T18:20:34.645Z,9.70
2023-03-16T18:23:15.222Z,9.70
2023-03-16T18:25:43.866Z,9.60
2023-03-16T18:28:24.807Z,9.60
2023-03-16T18:30:54.359Z,9.60
2023-03-16T18:33:27.456Z,9.60
2023-03-16T18:36:01.546Z,9.50
2023-03-16T18:38:33.544Z,9.50
2023-03-16T18:41:11.752Z,9.50
2023-03-16T18:43:40.270Z,9.40
2023-03-16T18:46:22.887Z,9.40
2023-03-16T18:48:52.319Z,9.40
2023-03-16T18:51:23.208Z,9.30
2023-03-16T18:53:52.327Z,9.30
2023-03-16T18:56:22.669Z,9.20
2023-03-16T18:58:52.534Z,9.20
2023-03-16T19:01:27.997Z,9.10
2023-03-16T19:03:58.330Z,9.10
2023-03-16T19:06:33.427Z,9.00
2023-03-16T19:09:07.691Z,9.00
2023-03-16T19:11:43.447Z,9.00
2023-03-16T19:14:17.619Z,8.90
2023-03-16T19:16:46.628Z,8.90
2023-03-16T19:19:16.929Z,8.90
2023-03-16T19:21:46.491Z,8.80
2023-03-16T19:24:25.559Z,8.80
2023-03-16T19:26:54.402Z,8.80
2023-03-16T19:29:31.778Z,8.70
2023-03-16T19:32:00.807Z,8.70
2023-03-16T19:34:29.740Z,8.60
2023-03-16T19:36:59.194Z,8.60
2023-03-16T19:39:27.813Z,8.60
2023-03-16T19:41:59.235Z,8.50
2023-03-16T19:44:29.532Z,8.50
2023-03-16T19:47:00.607Z,8.50
2023-03-16T19:49:29.838Z,8.50
2023-03-16T19:52:05.357Z,8.50
2023-03-16T19:54:40.335Z,8.50
2023-03-16T19:57:15.351Z,8.40
2023-03-16T19:59:51.182Z,8.40
2023-03-16T20:02:53.880Z,8.40
2023-03-16T20:05:29.611Z,8.40
2023-03-16T20:08:01.967Z,8.40
2023-03-16T20:10:33.158Z,8.30
2023-03-16T20:13:10.126Z,8.30
2023-03-16T20:15:39.163Z,8.30
2023-03-16T20:18:14.436Z,8.30
2023-03-16T20:20:44.443Z,8.30
2023-03-16T20:23:21.220Z,8.30
2023-03-16T20:25:54.323Z,8.20
2023-03-16T20:28:28.275Z,8.20
2023-03-16T20:30:56.612Z,8.20
2023-03-16T20:33:29.388Z,8.20
2023-03-16T20:35:58.171Z,8.20
2023-03-16T20:38:28.515Z,8.20
2023-03-16T20:40:57.668Z,8.20
2023-03-16T20:43:29.502Z,8.20
2023-03-16T20:46:00.735Z,8.20
2023-03-16T20:48:32.468Z,8.20
2023-03-16T20:51:01.354Z,8.20
2023-03-16T20:53:31.881Z,8.20
2023-03-16T20:56:00.181Z,8.30
2023-03-16T20:58:32.430Z,8.30
2023-03-16T21:01:03.602Z,8.30
2023-03-16T21:03:33.725Z,8.30
2023-03-16T21:06:02.063Z,8.30
2023-03-16T21:08:31.608Z,8.30
2023-03-16T21:11:00.242Z,8.30
2023-03-16T21:13:32.657Z,8.30
2023-03-16T21:16:03.799Z,8.30
2023-03-16T21:18:33.083Z,8.30
2023-03-16T21:21:02.746Z,8.30
2023-03-16T21:23:32.390Z,8.30
2023-03-16T21:26:03.826Z,8.30
2023-03-16T21:28:35.787Z,8.30
2023-03-16T21:31:05.928Z,8.30
2023-03-16T21:33:37.266Z,8.30
2023-03-16T21:36:10.344Z,8.20
2023-03-16T21:38:39.791Z,8.20
2023-03-16T21:41:08.186Z,8.20
2023-03-16T21:43:36.665Z,8.20
2023-03-16T21:46:07.090Z,8.20
2023-03-16T21:48:40.036Z,8.20
2023-03-16T21:51:17.612Z,8.20
2023-03-16T21:53:49.127Z,8.10
2023-03-16T21:56:22.724Z,8.10
2023-03-16T21:58:52.004Z,8.10
2023-03-16T22:01:27.535Z,8.10
2023-03-16T22:04:00.982Z,8.10
2023-03-16T22:06:29.725Z,8.00
2023-03-16T22:09:01.490Z,8.00
2023-03-16T22:11:32.038Z,8.00
2023-03-16T22:14:01.339Z,7.90
2023-03-16T22:16:36.785Z,7.90
2023-03-16T22:19:05.804Z,7.90
2023-03-16T22:21:37.929Z,7.80
2023-03-16T22:24:16.261Z,7.90
2023-03-16T22:26:44.540Z,7.80
2023-03-16T22:29:23.269Z,7.80
2023-03-16T22:31:53.878Z,7.80
2023-03-16T22:34:31.245Z,7.70
2023-03-16T22:37:02.062Z,7.80
2023-03-16T22:39:36.727Z,7.70
2023-03-16T22:42:16.686Z,7.70
2023-03-16T22:44:44.724Z,7.70
2023-03-16T22:47:22.493Z,7.70
2023-03-16T22:49:52.609Z,7.70
2023-03-16T22:52:30.888Z,7.70
2023-03-16T22:55:03.348Z,7.70
2023-03-16T22:57:32.510Z,7.60
2023-03-16T23:00:07.136Z,7.60
2023-03-16T23:02:35.195Z,7.60
2023-03-16T23:05:03.404Z,7.60
2023-03-16T23:07:31.516Z,7.60
2023-03-16T23:10:01.074Z,7.60
2023-03-16T23:12:29.229Z,7.60
2023-03-16T23:14:57.378Z,7.60
2023-03-16T23:17:25.679Z,7.60
2023-03-16T23:19:53.945Z,7.60
2023-03-16T23:22:22.048Z,7.60
2023-03-16T23:24:50.233Z,7.60
2023-03-16T23:27:22.688Z,7.60
2023-03-16T23:29:50.983Z,7.60
2023-03-16T23:32:19.270Z,7.60
2023-03-16T23:34:47.323Z,7.60
2023-03-16T23:37:15.695Z,7.60
2023-03-16T23:39:43.797Z,7.60
2023-03-16T23:42:12.478Z,7.60
2023-03-16T23:44:41.933Z,7.60
2023-03-16T23:47:12.132Z,7.60
2023-03-16T23:49:42.131Z,7.60
2023-03-16T23:52:13.318Z,7.60
2023-03-16T23:54:41.429Z,7.60
2023-03-16T23:57:10.169Z,7.60
2023-03-16T23:59:38.230Z,7.60
